Vadnais Heights, Minnesota
Current Conditions -  °F | °C
As of 8:11 PM on Saturday 22 Nov 2014 (Local Time) from K21D Reporting Station
Haze Haze  
Wind Chill: 30°   Ceiling: 200
Heat Index: 36°   Visibility: 1mi
Dew Point: 36°   Wind: 7mph
Humidity: 100%   Direction: 150°SSE
Pressure: 29.6"   Gusts: NA
Location:  45.0958°N, 93.0043°W
Report Text: K21D 230211Z AUTO 15006KT 1SM BR OVC002 02/02 A2960 RMK AO2
Loading
Personal Weather Stations






























Interactive Weather Map New forecast layout! Learn more

10-Day Weather Forecast

Advertisements
Track Severe Weather on mobile